createdAt,value
2023-02-23T00:00:55.336Z,100838.36
2023-02-23T00:03:28.087Z,100825.90
2023-02-23T00:06:03.658Z,100833.44
2023-02-23T00:08:37.175Z,100827.98
2023-02-23T00:11:12.815Z,100830.33
2023-02-23T00:13:47.339Z,100832.77
2023-02-23T00:16:21.641Z,100836.03
2023-02-23T00:18:55.343Z,100833.34
2023-02-23T00:21:29.968Z,100833.40
2023-02-23T00:24:04.714Z,100837.67
2023-02-23T00:26:38.074Z,100839.77
2023-02-23T00:29:13.749Z,100838.53
2023-02-23T00:31:46.956Z,100836.55
2023-02-23T00:34:21.571Z,100836.98
2023-02-23T00:36:55.688Z,100837.55
2023-02-23T00:39:29.585Z,100836.08
2023-02-23T00:42:03.757Z,100837.44
2023-02-23T00:44:40.660Z,100836.81
2023-02-23T00:47:13.100Z,100836.45
2023-02-23T00:49:46.217Z,100834.23
2023-02-23T00:52:19.315Z,100835.37
2023-02-23T00:54:51.663Z,100834.74
2023-02-23T00:57:24.465Z,100832.88
2023-02-23T00:59:56.891Z,100833.59
2023-02-23T01:02:31.329Z,100834.86
2023-02-23T01:05:04.175Z,100834.89
2023-02-23T01:07:36.430Z,100834.38
2023-02-23T01:10:19.601Z,100836.40
2023-02-23T01:12:53.878Z,100833.86
2023-02-23T01:15:27.817Z,100828.54
2023-02-23T01:18:00.293Z,100828.34
2023-02-23T01:20:32.925Z,100829.13
2023-02-23T01:23:07.644Z,100829.61
2023-02-23T01:25:40.412Z,100833.81
2023-02-23T01:28:13.745Z,100827.30
2023-02-23T01:30:46.342Z,100824.73
2023-02-23T01:33:18.974Z,100823.09
2023-02-23T01:36:00.229Z,100823.56
2023-02-23T01:38:32.971Z,100826.50
2023-02-23T01:41:07.168Z,100828.08
2023-02-23T01:43:52.978Z,100834.13
2023-02-23T01:46:25.389Z,100833.27
2023-02-23T01:48:58.804Z,100836.68
2023-02-23T01:51:34.316Z,100835.23
2023-02-23T01:54:14.505Z,100833.36
2023-02-23T01:56:51.237Z,100841.61
2023-02-23T01:59:23.863Z,100839.20
2023-02-23T02:01:57.389Z,100834.89
2023-02-23T02:04:33.829Z,100836.15
2023-02-23T02:07:07.839Z,100836.14
2023-02-23T02:09:40.930Z,100838.56
2023-02-23T02:12:15.693Z,100839.13
2023-02-23T02:14:49.071Z,100843.08
2023-02-23T02:17:33.914Z,100840.10
2023-02-23T02:20:43.023Z,100837.19
2023-02-23T02:23:48.532Z,100839.02
2023-02-23T02:26:29.583Z,100843.27
2023-02-23T02:29:28.873Z,100848.64
2023-02-23T02:32:22.992Z,100846.55
2023-02-23T02:35:25.810Z,100851.59
2023-02-23T02:38:06.777Z,100846.56
2023-02-23T02:40:53.584Z,100852.36
2023-02-23T02:43:40.809Z,100850.09
2023-02-23T02:46:18.750Z,100854.17
2023-02-23T02:48:59.526Z,100851.68
2023-02-23T02:51:39.684Z,100845.86
2023-02-23T02:54:22.206Z,100847.48
2023-02-23T02:57:00.507Z,100859.03
2023-02-23T02:59:50.650Z,100858.57
2023-02-23T03:02:43.282Z,100861.14
2023-02-23T03:05:35.464Z,100866.05
2023-02-23T03:08:34.808Z,100862.83
2023-02-23T03:11:27.587Z,100873.56
2023-02-23T03:14:29.962Z,100879.39
2023-02-23T03:17:27.832Z,100879.11
2023-02-23T03:20:24.778Z,100879.20
2023-02-23T03:23:24.591Z,100885.32
2023-02-23T03:26:20.781Z,100889.09
2023-02-23T03:29:19.416Z,100889.91
2023-02-23T03:32:17.730Z,100892.48
2023-02-23T03:35:12.894Z,100895.27
2023-02-23T03:38:12.778Z,100896.55
2023-02-23T03:41:05.365Z,100899.19
2023-02-23T03:44:01.384Z,100899.76
2023-02-23T03:46:52.743Z,100897.10
2023-02-23T03:49:46.420Z,100899.45
2023-02-23T03:52:40.547Z,100901.78
2023-02-23T03:55:34.797Z,100905.48
2023-02-23T03:58:27.979Z,100906.91
2023-02-23T04:01:21.720Z,100907.53
2023-02-23T04:04:15.533Z,100897.37
2023-02-23T04:07:08.302Z,100905.64
2023-02-23T04:09:57.884Z,100918.86
2023-02-23T04:12:53.224Z,100914.05
2023-02-23T04:15:30.420Z,100918.45
2023-02-23T04:18:04.756Z,100911.73
2023-02-23T04:20:37.328Z,100915.59
2023-02-23T04:23:09.643Z,100912.72
2023-02-23T04:25:42.168Z,100917.86
2023-02-23T04:28:14.543Z,100916.42
2023-02-23T04:30:46.968Z,100915.02
2023-02-23T04:33:19.437Z,100912.42
2023-02-23T04:35:53.293Z,100916.32
2023-02-23T04:38:25.983Z,100916.64
2023-02-23T04:40:58.374Z,100921.26
2023-02-23T04:43:30.688Z,100921.17
2023-02-23T04:46:03.103Z,100918.61
2023-02-23T04:48:35.455Z,100920.50
2023-02-23T04:51:08.161Z,100922.66
2023-02-23T04:53:41.110Z,100923.91
2023-02-23T04:56:13.808Z,100924.45
2023-02-23T04:58:46.388Z,100928.93
2023-02-23T05:01:19.312Z,100929.55
2023-02-23T05:03:52.102Z,100926.42
2023-02-23T05:06:24.760Z,100924.24
2023-02-23T05:08:57.049Z,100932.11
2023-02-23T05:11:29.358Z,100934.93
2023-02-23T05:14:01.745Z,100933.98
2023-02-23T05:16:34.358Z,100939.46
2023-02-23T05:19:06.784Z,100943.87
2023-02-23T05:21:41.453Z,100949.09
2023-02-23T05:24:13.759Z,100953.88
2023-02-23T05:26:46.488Z,100960.45
2023-02-23T05:29:19.361Z,100969.89
2023-02-23T05:31:51.671Z,100973.73
2023-02-23T05:34:24.343Z,100974.69
2023-02-23T05:36:56.704Z,100977.23
2023-02-23T05:39:29.060Z,100980.23
2023-02-23T05:42:01.435Z,100983.20
2023-02-23T05:44:33.773Z,100986.77
2023-02-23T05:47:06.082Z,100992.04
2023-02-23T05:49:38.679Z,101000.35
2023-02-23T05:52:11.168Z,101003.79
2023-02-23T05:54:43.480Z,101008.16
2023-02-23T05:57:16.179Z,101011.73
2023-02-23T05:59:48.573Z,101015.81
2023-02-23T06:02:21.010Z,101019.17
2023-02-23T06:04:53.467Z,101021.48
2023-02-23T06:07:25.880Z,101032.50
2023-02-23T06:09:58.128Z,101039.02
2023-02-23T06:12:30.491Z,101046.46
2023-02-23T06:15:02.876Z,101048.52
2023-02-23T06:17:35.315Z,101050.80
2023-02-23T06:20:09.119Z,101051.89
2023-02-23T06:22:42.504Z,101055.75
2023-02-23T06:25:14.847Z,101061.14
2023-02-23T06:27:47.095Z,101062.77
2023-02-23T06:30:20.162Z,101062.41
2023-02-23T06:32:52.788Z,101072.84
2023-02-23T06:35:27.428Z,101069.24
2023-02-23T06:37:59.876Z,101072.42
2023-02-23T06:40:32.223Z,101074.23
2023-02-23T06:43:05.347Z,101075.19
2023-02-23T06:45:37.804Z,101076.51
2023-02-23T06:48:10.695Z,101078.25
2023-02-23T06:50:43.731Z,101075.54
2023-02-23T06:53:16.172Z,101078.45
2023-02-23T06:55:48.536Z,101084.23
2023-02-23T06:58:21.018Z,101082.39
2023-02-23T07:00:54.418Z,101083.33
2023-02-23T07:03:27.088Z,101082.41
2023-02-23T07:05:59.349Z,101082.70
2023-02-23T07:08:31.665Z,101087.42
2023-02-23T07:11:10.437Z,101084.05
2023-02-23T07:13:43.746Z,101084.95
2023-02-23T07:16:16.464Z,101084.54
2023-02-23T07:18:48.872Z,101091.05
2023-02-23T07:21:21.531Z,101095.10
2023-02-23T07:23:53.812Z,101088.58
2023-02-23T07:26:26.063Z,101092.70
2023-02-23T07:28:58.480Z,101092.73
2023-02-23T07:31:30.896Z,101096.63
2023-02-23T07:34:03.387Z,101094.93
2023-02-23T07:36:36.442Z,101102.67
2023-02-23T07:39:09.100Z,101101.64
2023-02-23T07:41:41.654Z,101106.95
2023-02-23T07:44:14.106Z,101116.17
2023-02-23T07:46:47.040Z,101115.56
2023-02-23T07:49:19.358Z,101116.98
2023-02-23T07:51:51.691Z,101118.55
2023-02-23T07:54:25.643Z,101126.67
2023-02-23T07:56:57.927Z,101128.42
2023-02-23T07:59:30.559Z,101130.38
2023-02-23T08:02:02.842Z,101131.73
2023-02-23T08:04:35.342Z,101130.48
2023-02-23T08:07:08.815Z,101140.79
2023-02-23T08:09:41.206Z,101142.73
2023-02-23T08:12:15.673Z,101139.80
2023-02-23T08:14:48.124Z,101142.42
2023-02-23T08:17:20.507Z,101148.09
2023-02-23T08:19:52.845Z,101141.42
2023-02-23T08:22:25.092Z,101144.39
2023-02-23T08:24:57.500Z,101144.29
2023-02-23T08:27:29.975Z,101146.48
2023-02-23T08:30:04.178Z,101143.55
2023-02-23T08:32:37.645Z,101147.39
2023-02-23T08:35:11.261Z,101156.56
2023-02-23T08:37:43.855Z,101152.87
2023-02-23T08:40:18.420Z,101164.92
2023-02-23T08:42:52.150Z,101162.77
2023-02-23T08:45:24.471Z,101163.48
2023-02-23T08:47:57.429Z,101168.43
2023-02-23T08:50:29.783Z,101170.27
2023-02-23T08:53:01.992Z,101171.08
2023-02-23T08:55:35.652Z,101170.63
2023-02-23T08:58:09.548Z,101176.36
2023-02-23T09:00:41.876Z,101170.54
2023-02-23T09:03:14.271Z,101173.08
2023-02-23T09:05:47.219Z,101172.35
2023-02-23T09:08:19.554Z,101171.94
2023-02-23T09:10:51.833Z,101178.24
2023-02-23T09:13:24.146Z,101177.84
2023-02-23T09:15:56.650Z,101188.67
2023-02-23T09:18:29.636Z,101186.42
2023-02-23T09:21:07.139Z,101190.40
2023-02-23T09:23:39.788Z,101189.74
2023-02-23T09:26:12.185Z,101197.92
2023-02-23T09:28:44.451Z,101198.75
2023-02-23T09:31:19.641Z,101202.22
2023-02-23T09:33:52.969Z,101210.80
2023-02-23T09:36:27.296Z,101208.89
2023-02-23T09:38:59.791Z,101211.86
2023-02-23T09:41:59.074Z,101218.42
2023-02-23T09:44:43.611Z,101218.80
2023-02-23T09:47:30.835Z,101217.23
2023-02-23T09:50:11.716Z,101220.11
2023-02-23T09:52:49.909Z,101219.98
2023-02-23T09:55:22.993Z,101221.65
2023-02-23T09:57:58.364Z,101227.92
2023-02-23T10:00:31.789Z,101227.63
2023-02-23T10:03:20.026Z,101221.46
2023-02-23T10:05:57.742Z,101227.86
2023-02-23T10:08:43.957Z,101229.95
2023-02-23T10:11:26.078Z,101234.66
2023-02-23T10:14:12.636Z,101236.10
2023-02-23T10:17:01.558Z,101241.25
2023-02-23T10:19:44.718Z,101237.83
2023-02-23T10:22:19.367Z,101238.83
2023-02-23T10:24:57.122Z,101234.25
2023-02-23T10:27:37.695Z,101237.64
2023-02-23T10:30:22.517Z,101235.95
2023-02-23T10:33:00.944Z,101227.73
2023-02-23T10:35:33.881Z,101228.30
2023-02-23T10:38:06.509Z,101228.89
2023-02-23T10:40:38.968Z,101230.95
2023-02-23T10:43:14.761Z,101232.47
2023-02-23T10:45:48.031Z,101233.54
2023-02-23T10:48:24.548Z,101233.34
2023-02-23T10:51:03.160Z,101236.12
2023-02-23T10:53:39.241Z,101226.59
2023-02-23T10:56:12.810Z,101230.38
2023-02-23T10:58:47.714Z,101235.39
2023-02-23T11:01:43.909Z,101228.17
2023-02-23T11:04:26.241Z,101235.61
2023-02-23T11:07:11.606Z,101231.77
2023-02-23T11:09:47.582Z,101234.66
2023-02-23T11:12:23.406Z,101234.08
2023-02-23T11:14:57.715Z,101232.66
2023-02-23T11:17:33.965Z,101231.78
2023-02-23T11:20:21.109Z,101231.54
2023-02-23T11:22:54.661Z,101232.48
2023-02-23T11:25:33.089Z,101236.27
2023-02-23T11:28:05.754Z,101238.04
2023-02-23T11:30:43.013Z,101239.73
2023-02-23T11:33:21.657Z,101241.48
2023-02-23T11:36:02.691Z,101241.89
2023-02-23T11:38:35.344Z,101241.10
2023-02-23T11:41:22.040Z,101244.45
2023-02-23T11:43:58.984Z,101240.23
2023-02-23T11:46:33.892Z,101240.63
2023-02-23T11:49:10.281Z,101245.55
2023-02-23T11:51:47.667Z,101249.53
2023-02-23T11:54:27.208Z,101255.84
2023-02-23T11:57:02.866Z,101255.23
2023-02-23T11:59:39.164Z,101249.68
2023-02-23T12:02:25.807Z,101255.05
2023-02-23T12:05:08.642Z,101255.80
2023-02-23T12:07:43.212Z,101255.73
2023-02-23T12:10:24.876Z,101253.82
2023-02-23T12:13:07.544Z,101255.08
2023-02-23T12:15:48.176Z,101252.05
2023-02-23T12:18:45.241Z,101247.90
2023-02-23T12:21:31.040Z,101249.02
2023-02-23T12:24:14.663Z,101245.39
2023-02-23T12:26:54.806Z,101251.17
2023-02-23T12:29:33.216Z,101249.40
2023-02-23T12:32:12.979Z,101248.69
2023-02-23T12:34:53.196Z,101246.44
2023-02-23T12:37:38.887Z,101248.94
2023-02-23T12:40:23.916Z,101252.99
2023-02-23T12:43:01.683Z,101255.73
2023-02-23T12:45:42.185Z,101254.98
2023-02-23T12:48:30.159Z,101253.55
2023-02-23T12:51:07.795Z,101259.97
2023-02-23T12:53:43.235Z,101262.14
2023-02-23T12:56:35.789Z,101268.89
2023-02-23T12:59:22.166Z,101275.54
2023-02-23T13:01:55.684Z,101269.00
2023-02-23T13:04:58.778Z,101274.35
2023-02-23T13:07:42.046Z,101273.36
2023-02-23T13:10:22.315Z,101272.69
2023-02-23T13:13:05.557Z,101275.91
2023-02-23T13:15:50.207Z,101278.67
2023-02-23T13:18:29.838Z,101276.61
2023-02-23T13:21:11.576Z,101276.95
2023-02-23T13:23:55.291Z,101280.50
2023-02-23T13:26:37.309Z,101278.51
2023-02-23T13:29:18.941Z,101268.33
2023-02-23T13:31:51.650Z,101273.75
2023-02-23T13:34:29.995Z,101278.46
2023-02-23T13:37:06.692Z,101278.23
2023-02-23T13:40:08.335Z,101274.40
2023-02-23T13:42:48.974Z,101275.52
2023-02-23T13:45:50.062Z,101279.23
2023-02-23T13:48:31.374Z,101277.36
2023-02-23T13:51:08.552Z,101279.36
2023-02-23T13:53:44.054Z,101282.43
2023-02-23T13:56:20.891Z,101287.35
2023-02-23T13:58:59.896Z,101288.38
2023-02-23T14:01:37.774Z,101287.66
2023-02-23T14:04:17.988Z,101284.51
2023-02-23T14:07:02.108Z,101287.73
2023-02-23T14:09:37.040Z,101293.48
2023-02-23T14:12:19.576Z,101294.04
2023-02-23T14:14:52.198Z,101290.00
2023-02-23T14:17:44.383Z,101288.83
2023-02-23T14:20:29.925Z,101291.28
2023-02-23T14:23:34.712Z,101289.30
2023-02-23T14:26:20.176Z,101288.44
2023-02-23T14:29:21.694Z,101287.98
2023-02-23T14:32:30.148Z,101280.98
2023-02-23T14:35:03.887Z,101280.66
2023-02-23T14:37:38.645Z,101281.04
2023-02-23T14:40:15.986Z,101278.73
2023-02-23T14:42:54.136Z,101276.22
2023-02-23T14:45:29.006Z,101276.24
2023-02-23T14:48:06.901Z,101279.04
2023-02-23T14:50:41.464Z,101280.23
2023-02-23T14:53:21.028Z,101281.65
2023-02-23T14:55:53.315Z,101276.39
2023-02-23T14:58:28.571Z,101278.35
2023-02-23T15:01:00.868Z,101285.74
2023-02-23T15:03:33.174Z,101284.94
2023-02-23T15:06:06.654Z,101287.01
2023-02-23T15:08:45.876Z,101277.73
2023-02-23T15:11:20.055Z,101287.23
2023-02-23T15:13:55.012Z,101281.23
2023-02-23T15:16:34.451Z,101287.52
2023-02-23T15:19:08.372Z,101285.67
2023-02-23T15:21:40.807Z,101279.20
2023-02-23T15:24:16.719Z,101283.71
2023-02-23T15:26:49.741Z,101287.17
2023-02-23T15:29:25.428Z,101286.16
2023-02-23T15:32:12.977Z,101289.79
2023-02-23T15:34:45.435Z,101286.81
2023-02-23T15:37:25.987Z,101285.26
2023-02-23T15:40:00.762Z,101279.00
2023-02-23T15:42:37.919Z,101288.40
2023-02-23T15:45:20.633Z,101283.73
2023-02-23T15:47:56.734Z,101289.27
2023-02-23T15:50:37.422Z,101290.99
2023-02-23T15:53:19.863Z,101292.46
2023-02-23T15:55:55.644Z,101291.84
2023-02-23T15:58:31.936Z,101292.67
2023-02-23T16:01:13.370Z,101296.14
2023-02-23T16:03:58.978Z,101303.14
2023-02-23T16:06:35.778Z,101302.58
2023-02-23T16:09:25.523Z,101310.31
2023-02-23T16:12:02.595Z,101306.21
2023-02-23T16:14:45.097Z,101314.90
2023-02-23T16:17:26.693Z,101313.48
2023-02-23T16:20:18.975Z,101315.39
2023-02-23T16:22:53.699Z,101315.80
2023-02-23T16:25:28.982Z,101321.88
2023-02-23T16:28:04.861Z,101319.58
2023-02-23T16:30:44.157Z,101318.70
2023-02-23T16:33:23.176Z,101323.12
2023-02-23T16:36:14.348Z,101320.20
2023-02-23T16:38:59.080Z,101328.70
2023-02-23T16:41:33.898Z,101329.64
2023-02-23T16:44:08.953Z,101329.05
2023-02-23T16:47:01.691Z,101334.44
2023-02-23T16:49:34.063Z,101332.17
2023-02-23T16:52:15.500Z,101332.38
2023-02-23T16:54:48.664Z,101334.14
2023-02-23T16:57:25.701Z,101337.21
2023-02-23T16:59:58.828Z,101334.17
2023-02-23T17:02:31.268Z,101340.14
2023-02-23T17:05:03.723Z,101348.66
2023-02-23T17:07:36.757Z,101347.23
2023-02-23T17:10:21.349Z,101344.15
2023-02-23T17:12:55.609Z,101349.52
2023-02-23T17:15:31.693Z,101355.33
2023-02-23T17:18:04.176Z,101354.84
2023-02-23T17:20:36.596Z,101349.76
2023-02-23T17:23:09.515Z,101353.27
2023-02-23T17:25:42.065Z,101353.64
2023-02-23T17:28:14.663Z,101358.86
2023-02-23T17:30:47.507Z,101353.94
2023-02-23T17:33:19.902Z,101355.80
2023-02-23T17:35:52.527Z,101354.64
2023-02-23T17:38:29.598Z,101359.71
2023-02-23T17:41:01.998Z,101358.49
2023-02-23T17:43:35.156Z,101363.54
2023-02-23T17:46:08.454Z,101363.64
2023-02-23T17:48:44.819Z,101363.59
2023-02-23T17:51:19.580Z,101368.36
2023-02-23T17:53:52.222Z,101366.16
2023-02-23T17:56:24.588Z,101368.08
2023-02-23T17:58:56.902Z,101362.67
2023-02-23T18:01:30.782Z,101367.61
2023-02-23T18:04:03.609Z,101358.89
2023-02-23T18:06:35.859Z,101365.88
2023-02-23T18:09:08.446Z,101364.70
2023-02-23T18:11:40.713Z,101368.60
2023-02-23T18:14:14.546Z,101369.02
2023-02-23T18:16:46.888Z,101366.45
2023-02-23T18:19:19.322Z,101366.52
2023-02-23T18:21:56.338Z,101354.89
2023-02-23T18:24:31.836Z,101358.17
2023-02-23T18:27:04.222Z,101362.22
2023-02-23T18:29:38.255Z,101361.69
2023-02-23T18:32:12.380Z,101364.04
2023-02-23T18:34:44.878Z,101359.88
2023-02-23T18:37:25.240Z,101361.66
2023-02-23T18:39:59.501Z,101362.61
2023-02-23T18:42:32.625Z,101363.04
2023-02-23T18:45:05.364Z,101365.77
2023-02-23T18:47:37.796Z,101369.82
2023-02-23T18:50:12.914Z,101370.09
2023-02-23T18:52:46.921Z,101370.08
2023-02-23T18:55:19.673Z,101372.05
2023-02-23T18:57:53.172Z,101372.27
2023-02-23T19:00:26.409Z,101374.64
2023-02-23T19:02:59.290Z,101374.56
2023-02-23T19:05:33.535Z,101377.71
2023-02-23T19:08:08.787Z,101381.02
2023-02-23T19:10:41.421Z,101376.91
2023-02-23T19:13:13.813Z,101379.97
2023-02-23T19:15:48.423Z,101378.44
2023-02-23T19:18:20.888Z,101379.20
2023-02-23T19:20:55.590Z,101386.20
2023-02-23T19:23:28.099Z,101384.19
2023-02-23T19:26:02.627Z,101381.27
2023-02-23T19:28:35.147Z,101384.66
2023-02-23T19:31:10.166Z,101383.55
2023-02-23T19:33:43.010Z,101389.14
2023-02-23T19:36:24.453Z,101391.02
2023-02-23T19:39:06.164Z,101389.55
2023-02-23T19:41:40.525Z,101389.00
2023-02-23T19:44:12.958Z,101387.11
2023-02-23T19:46:45.473Z,101389.54
2023-02-23T19:49:19.330Z,101385.93
2023-02-23T19:51:53.120Z,101387.42
2023-02-23T19:54:28.775Z,101391.52
2023-02-23T19:57:03.168Z,101392.04
2023-02-23T19:59:37.836Z,101387.43
2023-02-23T20:02:11.274Z,101387.52
2023-02-23T20:04:43.684Z,101390.88
2023-02-23T20:07:16.008Z,101384.61
2023-02-23T20:09:48.393Z,101382.64
2023-02-23T20:12:20.770Z,101381.64
2023-02-23T20:14:53.228Z,101381.50
2023-02-23T20:17:25.546Z,101383.09
2023-02-23T20:19:57.908Z,101384.14
2023-02-23T20:22:32.656Z,101379.02
2023-02-23T20:25:06.847Z,101375.41
2023-02-23T20:27:39.859Z,101379.67
2023-02-23T20:30:14.784Z,101375.14
2023-02-23T20:32:47.493Z,101375.32
2023-02-23T20:35:20.569Z,101370.92
2023-02-23T20:37:53.172Z,101370.05
2023-02-23T20:40:27.537Z,101365.22
2023-02-23T20:42:59.927Z,101367.32
2023-02-23T20:45:32.365Z,101365.90
2023-02-23T20:48:04.874Z,101364.80
2023-02-23T20:50:37.744Z,101366.19
2023-02-23T20:53:10.146Z,101361.56
2023-02-23T20:55:42.536Z,101357.43
2023-02-23T20:58:26.340Z,101356.83
2023-02-23T21:01:03.578Z,101351.91
2023-02-23T21:03:36.498Z,101345.18
2023-02-23T21:06:09.387Z,101344.56
2023-02-23T21:08:42.280Z,101343.48
2023-02-23T21:11:14.558Z,101341.14
2023-02-23T21:13:47.552Z,101337.41
2023-02-23T21:16:21.492Z,101337.29
2023-02-23T21:19:04.321Z,101335.31
2023-02-23T21:21:41.532Z,101335.60
2023-02-23T21:24:16.223Z,101329.75
2023-02-23T21:26:48.811Z,101332.80
2023-02-23T21:29:23.928Z,101330.48
2023-02-23T21:31:57.178Z,101336.42
2023-02-23T21:34:29.592Z,101332.27
2023-02-23T21:37:02.087Z,101337.19
2023-02-23T21:39:34.518Z,101333.08
2023-02-23T21:42:07.014Z,101326.85
2023-02-23T21:44:39.362Z,101328.36
2023-02-23T21:47:11.647Z,101324.70
2023-02-23T21:49:49.253Z,101326.30
2023-02-23T21:52:21.864Z,101324.69
2023-02-23T21:54:54.699Z,101322.74
2023-02-23T21:57:28.392Z,101319.17
2023-02-23T22:00:00.786Z,101317.12
2023-02-23T22:02:38.509Z,101325.48
2023-02-23T22:05:12.144Z,101327.80
2023-02-23T22:07:48.569Z,101323.10
2023-02-23T22:10:22.799Z,101320.25
2023-02-23T22:12:56.923Z,101319.73
2023-02-23T22:15:29.742Z,101311.78
2023-02-23T22:18:02.122Z,101313.28
2023-02-23T22:20:37.059Z,101313.45
2023-02-23T22:23:09.612Z,101312.73
2023-02-23T22:25:42.002Z,101309.13
2023-02-23T22:28:14.454Z,101304.79
2023-02-23T22:30:50.979Z,101309.45
2023-02-23T22:33:23.688Z,101304.39
2023-02-23T22:35:57.256Z,101303.99
2023-02-23T22:38:30.656Z,101295.86
2023-02-23T22:41:05.132Z,101300.83
2023-02-23T22:43:37.637Z,101297.23
2023-02-23T22:46:11.109Z,101289.79
2023-02-23T22:48:45.673Z,101286.15
2023-02-23T22:51:20.854Z,101280.31
2023-02-23T22:53:53.494Z,101277.67
2023-02-23T22:56:26.944Z,101274.64
2023-02-23T22:59:05.054Z,101271.62
2023-02-23T23:01:38.927Z,101271.21
2023-02-23T23:04:11.349Z,101262.52
2023-02-23T23:06:46.370Z,101265.07
2023-02-23T23:09:21.144Z,101260.61
2023-02-23T23:11:54.191Z,101258.52
2023-02-23T23:14:26.705Z,101255.97
2023-02-23T23:16:59.884Z,101259.44
2023-02-23T23:19:39.123Z,101254.10
2023-02-23T23:22:14.577Z,101251.80
2023-02-23T23:24:49.182Z,101244.48
2023-02-23T23:27:22.441Z,101241.25
2023-02-23T23:29:55.635Z,101236.89
2023-02-23T23:32:30.138Z,101234.46
2023-02-23T23:35:02.462Z,101228.20
2023-02-23T23:37:34.842Z,101227.95
2023-02-23T23:40:14.386Z,101222.68
2023-02-23T23:42:48.246Z,101220.66
2023-02-23T23:45:24.442Z,101216.76
2023-02-23T23:47:56.829Z,101215.48
2023-02-23T23:50:29.361Z,101217.12
2023-02-23T23:53:01.674Z,101214.06
2023-02-23T23:55:34.050Z,101210.95
2023-02-23T23:58:07.097Z,101208.73
